createdAt,value
2023-04-23T00:01:20.705Z,100009.56
2023-04-23T00:03:50.270Z,100013.09
2023-04-23T00:06:17.959Z,100004.09
2023-04-23T00:08:45.644Z,100014.78
2023-04-23T00:11:12.997Z,100010.44
2023-04-23T00:13:40.450Z,100003.16
2023-04-23T00:16:08.391Z,100004.78
2023-04-23T00:18:35.582Z,100007.53
2023-04-23T00:21:02.629Z,99999.38
2023-04-23T00:23:29.686Z,100007.28
2023-04-23T00:25:56.743Z,100003.84
2023-04-23T00:28:23.807Z,99995.75
2023-04-23T00:30:51.154Z,99989.59
2023-04-23T00:33:18.287Z,99993.88
2023-04-23T00:35:45.606Z,99985.00
2023-04-23T00:38:12.674Z,99985.91
2023-04-23T00:40:39.844Z,99990.25
2023-04-23T00:43:09.726Z,99986.56
2023-04-23T00:45:37.008Z,99996.59
2023-04-23T00:48:04.177Z,99993.75
2023-04-23T00:50:31.278Z,99998.09
2023-04-23T00:52:58.317Z,99990.94
2023-04-23T00:55:25.630Z,99988.19
2023-04-23T00:57:52.776Z,99991.78
2023-04-23T01:00:20.742Z,99994.38
2023-04-23T01:02:49.947Z,99996.13
2023-04-23T01:05:18.415Z,99996.03
2023-04-23T01:07:46.649Z,99998.56
2023-04-23T01:10:13.993Z,100007.25
2023-04-23T01:12:41.059Z,100007.19
2023-04-23T01:15:09.272Z,100008.28
2023-04-23T01:17:37.184Z,99999.91
2023-04-23T01:20:06.674Z,100003.41
2023-04-23T01:22:38.191Z,99999.91
2023-04-23T01:25:05.948Z,99991.78
2023-04-23T01:27:36.044Z,100004.44
2023-04-23T01:30:07.603Z,100003.66
2023-04-23T01:32:35.446Z,100009.53
2023-04-23T01:35:04.588Z,100001.84
2023-04-23T01:37:32.187Z,100006.06
2023-04-23T01:39:59.448Z,100003.25
2023-04-23T01:42:26.550Z,99997.84
2023-04-23T01:44:53.617Z,99999.78
2023-04-23T01:47:21.249Z,100002.44
2023-04-23T01:49:48.628Z,99994.31
2023-04-23T01:52:15.757Z,100001.34
2023-04-23T01:54:42.925Z,99999.78
2023-04-23T01:57:10.854Z,99995.81
2023-04-23T01:59:38.778Z,100002.00
2023-04-23T02:02:05.962Z,100002.06
2023-04-23T02:04:34.169Z,99995.00
2023-04-23T02:07:01.399Z,100002.84
2023-04-23T02:09:28.430Z,100000.97
2023-04-23T02:11:57.766Z,99996.31
2023-04-23T02:14:24.752Z,100001.78
2023-04-23T02:16:51.729Z,99998.31
2023-04-23T02:19:18.899Z,99997.19
2023-04-23T02:21:46.472Z,99992.69
2023-04-23T02:24:13.551Z,100001.50
2023-04-23T02:26:40.589Z,99994.22
2023-04-23T02:29:07.586Z,99997.72
2023-04-23T02:31:34.602Z,99996.00
2023-04-23T02:34:01.706Z,99990.63
2023-04-23T02:36:31.066Z,99996.84
2023-04-23T02:38:58.085Z,99992.53
2023-04-23T02:41:25.089Z,99992.41
2023-04-23T02:43:52.204Z,99987.00
2023-04-23T02:46:19.273Z,99986.78
2023-04-23T02:48:46.560Z,99991.38
2023-04-23T02:51:14.314Z,99987.00
2023-04-23T02:53:41.308Z,99986.19
2023-04-23T02:56:08.450Z,99993.16
2023-04-23T02:58:35.782Z,99983.28
2023-04-23T03:01:03.975Z,99991.97
2023-04-23T03:03:32.533Z,99974.47
2023-04-23T03:06:02.543Z,99987.97
2023-04-23T03:08:29.746Z,99991.13
2023-04-23T03:10:56.757Z,99990.91
2023-04-23T03:13:24.202Z,99988.06
2023-04-23T03:15:52.579Z,99993.66
2023-04-23T03:18:20.393Z,99986.84
2023-04-23T03:20:47.886Z,99989.25
2023-04-23T03:23:14.897Z,99980.44
2023-04-23T03:25:41.879Z,99980.44
2023-04-23T03:28:08.888Z,99987.81
2023-04-23T03:30:35.929Z,99981.25
2023-04-23T03:33:03.398Z,99977.78
2023-04-23T03:35:30.639Z,99976.91
2023-04-23T03:37:57.830Z,99983.13
2023-04-23T03:40:25.049Z,99981.03
2023-04-23T03:42:52.072Z,99979.69
2023-04-23T03:45:19.055Z,99978.81
2023-04-23T03:47:46.159Z,99980.69
2023-04-23T03:50:13.554Z,99980.53
2023-04-23T03:52:41.138Z,99973.88
2023-04-23T03:55:09.090Z,99966.59
2023-04-23T03:57:39.255Z,99965.16
2023-04-23T04:00:11.910Z,99956.00
2023-04-23T04:02:41.011Z,99970.84
2023-04-23T04:05:10.310Z,99978.31
2023-04-23T04:07:37.619Z,99969.69
2023-04-23T04:10:06.772Z,99983.13
2023-04-23T04:12:33.873Z,99966.16
2023-04-23T04:15:00.877Z,99971.00
2023-04-23T04:17:27.848Z,99977.72
2023-04-23T04:19:54.902Z,99977.81
2023-04-23T04:22:21.999Z,99977.34
2023-04-23T04:24:52.073Z,99978.03
2023-04-23T04:27:19.620Z,99976.03
2023-04-23T04:29:46.666Z,99974.53
2023-04-23T04:32:13.963Z,99973.75
2023-04-23T04:34:41.204Z,99963.75
2023-04-23T04:37:10.031Z,99983.31
2023-04-23T04:39:37.343Z,99976.84
2023-04-23T04:42:06.735Z,99977.44
2023-04-23T04:44:37.543Z,99964.47
2023-04-23T04:47:08.130Z,99975.88
2023-04-23T04:49:36.134Z,99960.50
2023-04-23T04:52:03.280Z,99966.88
2023-04-23T04:54:30.269Z,99970.31
2023-04-23T04:56:57.328Z,99975.34
2023-04-23T04:59:24.504Z,99968.00
2023-04-23T05:01:51.540Z,99965.72
2023-04-23T05:04:18.705Z,99967.00
2023-04-23T05:06:45.983Z,99960.84
2023-04-23T05:09:13.022Z,99961.72
2023-04-23T05:11:41.225Z,99961.84
2023-04-23T05:14:08.253Z,99958.38
2023-04-23T05:16:35.569Z,99964.06
2023-04-23T05:19:02.566Z,99951.31
2023-04-23T05:21:29.698Z,99960.53
2023-04-23T05:23:56.659Z,99963.63
2023-04-23T05:26:23.700Z,99961.25
2023-04-23T05:28:50.746Z,99959.03
2023-04-23T05:31:17.793Z,99956.38
2023-04-23T05:33:50.334Z,99964.06
2023-04-23T05:36:18.491Z,99960.88
2023-04-23T05:38:45.648Z,99961.19
2023-04-23T05:41:13.055Z,99958.41
2023-04-23T05:43:40.070Z,99959.31
2023-04-23T05:46:07.810Z,99961.31
2023-04-23T05:48:35.340Z,99955.00
2023-04-23T05:51:02.490Z,99951.88
2023-04-23T05:53:29.456Z,99957.41
2023-04-23T05:55:56.665Z,99957.66
2023-04-23T05:58:24.196Z,99960.31
2023-04-23T06:00:53.036Z,99959.91
2023-04-23T06:03:20.452Z,99951.53
2023-04-23T06:05:47.807Z,99958.16
2023-04-23T06:08:14.942Z,99949.84
2023-04-23T06:10:41.964Z,99946.69
2023-04-23T06:13:09.222Z,99948.69
2023-04-23T06:15:36.214Z,99954.06
2023-04-23T06:18:03.338Z,99952.09
2023-04-23T06:20:30.801Z,99946.53
2023-04-23T06:22:57.864Z,99950.00
2023-04-23T06:25:25.850Z,99956.03
2023-04-23T06:27:52.808Z,99955.03
2023-04-23T06:30:20.030Z,99957.66
2023-04-23T06:32:47.083Z,99954.38
2023-04-23T06:35:14.152Z,99964.31
2023-04-23T06:37:41.137Z,99949.41
2023-04-23T06:40:08.662Z,99949.66
2023-04-23T06:42:35.666Z,99942.66
2023-04-23T06:45:06.175Z,99949.44
2023-04-23T06:47:33.485Z,99945.09
2023-04-23T06:50:00.473Z,99945.50
2023-04-23T06:52:27.727Z,99950.56
2023-04-23T06:54:54.734Z,99943.78
2023-04-23T06:57:22.021Z,99930.63
2023-04-23T06:59:49.126Z,99932.56
2023-04-23T07:02:16.323Z,99930.84
2023-04-23T07:04:43.712Z,99938.53
2023-04-23T07:07:12.108Z,99933.88
2023-04-23T07:09:39.379Z,99943.63
2023-04-23T07:12:06.481Z,99933.16
2023-04-23T07:14:33.531Z,99926.75
2023-04-23T07:17:00.654Z,99932.25
2023-04-23T07:19:27.978Z,99923.25
2023-04-23T07:21:54.980Z,99932.28
2023-04-23T07:24:22.132Z,99925.59
2023-04-23T07:26:49.394Z,99930.94
2023-04-23T07:29:16.710Z,99917.72
2023-04-23T07:31:43.928Z,99930.75
2023-04-23T07:34:11.102Z,99926.53
2023-04-23T07:36:38.310Z,99926.00
2023-04-23T07:39:05.762Z,99921.81
2023-04-23T07:41:33.660Z,99924.78
2023-04-23T07:44:01.046Z,99934.28
2023-04-23T07:46:28.180Z,99912.28
2023-04-23T07:48:55.658Z,99916.66
2023-04-23T07:51:26.567Z,99909.34
2023-04-23T07:53:58.358Z,99923.56
2023-04-23T07:56:25.577Z,99922.56
2023-04-23T07:58:54.110Z,99910.94
2023-04-23T08:01:21.920Z,99918.78
2023-04-23T08:03:49.091Z,99923.66
2023-04-23T08:06:16.719Z,99917.03
2023-04-23T08:08:44.142Z,99913.16
2023-04-23T08:11:11.804Z,99917.00
2023-04-23T08:13:38.801Z,99910.81
2023-04-23T08:16:07.007Z,99912.75
2023-04-23T08:18:34.152Z,99901.53
2023-04-23T08:21:02.052Z,99910.53
2023-04-23T08:23:29.089Z,99890.28
2023-04-23T08:25:56.199Z,99907.28
2023-04-23T08:28:23.288Z,99907.84
2023-04-23T08:30:50.402Z,99899.16
2023-04-23T08:33:17.499Z,99914.50
2023-04-23T08:35:44.481Z,99913.53
2023-04-23T08:38:11.484Z,99894.78
2023-04-23T08:40:42.677Z,99898.03
2023-04-23T08:43:26.339Z,99895.22
2023-04-23T08:45:54.018Z,99895.34
2023-04-23T08:48:21.779Z,99892.06
2023-04-23T08:50:49.532Z,99898.50
2023-04-23T08:53:22.051Z,99886.47
2023-04-23T08:55:50.737Z,99885.44
2023-04-23T08:58:18.392Z,99886.94
2023-04-23T09:00:45.874Z,99878.63
2023-04-23T09:03:13.524Z,99888.56
2023-04-23T09:05:40.630Z,99877.22
2023-04-23T09:08:08.726Z,99877.25
2023-04-23T09:10:40.097Z,99866.59
2023-04-23T09:13:07.433Z,99867.38
2023-04-23T09:15:43.341Z,99866.22
2023-04-23T09:18:10.945Z,99866.72
2023-04-23T09:20:38.309Z,99856.31
2023-04-23T09:23:09.153Z,99876.66
2023-04-23T09:25:36.992Z,99863.19
2023-04-23T09:28:10.800Z,99858.16
2023-04-23T09:30:44.992Z,99850.22
2023-04-23T09:33:17.444Z,99876.88
2023-04-23T09:35:44.649Z,99870.06
2023-04-23T09:38:12.519Z,99854.06
2023-04-23T09:40:39.570Z,99850.81
2023-04-23T09:43:10.435Z,99857.22
2023-04-23T09:45:38.056Z,99860.91
2023-04-23T09:48:06.060Z,99854.16
2023-04-23T09:50:39.100Z,99851.91
2023-04-23T09:53:08.710Z,99848.31
2023-04-23T09:55:42.820Z,99845.13
2023-04-23T09:58:15.675Z,99843.50
2023-04-23T10:00:43.498Z,99839.94
2023-04-23T10:03:12.004Z,99829.28
2023-04-23T10:08:14.611Z,99826.69
2023-04-23T10:13:12.044Z,99824.09
2023-04-23T10:15:39.295Z,99822.41
2023-04-23T10:18:08.371Z,99817.56
2023-04-23T10:20:36.058Z,99817.91
2023-04-23T10:23:04.166Z,99827.72
2023-04-23T10:25:32.675Z,99803.81
2023-04-23T10:28:02.566Z,99807.88
2023-04-23T10:30:30.202Z,99804.97
2023-04-23T10:33:00.463Z,99808.97
2023-04-23T10:35:27.891Z,99808.78
2023-04-23T10:37:54.923Z,99802.09
2023-04-23T10:40:34.051Z,99792.72
2023-04-23T10:43:01.361Z,99802.69
2023-04-23T10:45:32.127Z,99802.34
2023-04-23T10:47:59.590Z,99790.69
2023-04-23T10:50:35.296Z,99792.13
2023-04-23T10:53:03.921Z,99785.66
2023-04-23T10:55:32.734Z,99779.72
2023-04-23T10:58:08.386Z,99780.03
2023-04-23T11:00:41.328Z,99780.56
2023-04-23T11:03:34.692Z,99779.19
2023-04-23T11:06:03.529Z,99788.94
2023-04-23T11:08:32.613Z,99774.78
2023-04-23T11:11:01.584Z,99778.66
2023-04-23T11:13:30.342Z,99778.38
2023-04-23T11:16:23.449Z,99768.50
2023-04-23T11:19:04.796Z,99763.72
2023-04-23T11:22:01.582Z,99755.44
2023-04-23T11:24:34.431Z,99755.66
2023-04-23T11:27:02.712Z,99754.63
2023-04-23T11:29:29.877Z,99755.78
2023-04-23T11:32:02.973Z,99751.53
2023-04-23T11:34:33.034Z,99749.38
2023-04-23T11:37:01.341Z,99744.59
2023-04-23T11:39:28.471Z,99739.31
2023-04-23T11:41:55.663Z,99747.66
2023-04-23T11:44:23.231Z,99745.38
2023-04-23T11:46:51.173Z,99753.16
2023-04-23T11:49:19.954Z,99739.81
2023-04-23T11:51:48.624Z,99749.28
2023-04-23T11:54:16.348Z,99741.03
2023-04-23T11:56:43.928Z,99733.28
2023-04-23T11:59:11.144Z,99739.47
2023-04-23T12:01:47.422Z,99738.97
2023-04-23T12:04:22.332Z,99739.38
2023-04-23T12:06:51.064Z,99742.72
2023-04-23T12:09:22.111Z,99736.56
2023-04-23T12:11:52.896Z,99731.03
2023-04-23T12:14:28.850Z,99732.88
2023-04-23T12:16:57.936Z,99737.56
2023-04-23T12:19:31.107Z,99731.59
2023-04-23T12:22:03.473Z,99736.41
2023-04-23T12:24:52.268Z,99724.09
2023-04-23T12:27:24.463Z,99726.56
2023-04-23T12:30:04.917Z,99717.63
2023-04-23T12:32:34.753Z,99709.78
2023-04-23T12:35:02.049Z,99688.91
2023-04-23T12:37:31.085Z,99709.00
2023-04-23T12:39:59.654Z,99708.97
2023-04-23T12:42:27.328Z,99703.44
2023-04-23T12:44:57.393Z,99691.66
2023-04-23T12:47:24.466Z,99693.97
2023-04-23T12:49:55.690Z,99695.09
2023-04-23T12:52:22.711Z,99700.38
2023-04-23T12:54:52.892Z,99705.47
2023-04-23T12:57:23.334Z,99691.13
2023-04-23T12:59:50.902Z,99682.91
2023-04-23T13:02:18.007Z,99673.88
2023-04-23T13:04:45.073Z,99679.56
2023-04-23T13:07:12.097Z,99681.88
2023-04-23T13:09:39.176Z,99673.88
2023-04-23T13:12:06.336Z,99671.91
2023-04-23T13:14:33.398Z,99666.47
2023-04-23T13:17:00.521Z,99667.50
2023-04-23T13:19:27.577Z,99666.06
2023-04-23T13:21:54.577Z,99656.63
2023-04-23T13:24:21.643Z,99654.59
2023-04-23T13:26:48.694Z,99655.22
2023-04-23T13:29:16.121Z,99635.53
2023-04-23T13:31:43.242Z,99637.94
2023-04-23T13:34:10.394Z,99641.44
2023-04-23T13:36:37.949Z,99641.50
2023-04-23T13:39:05.025Z,99636.44
2023-04-23T13:41:32.147Z,99637.28
2023-04-23T13:43:59.861Z,99646.03
2023-04-23T13:46:27.317Z,99645.19
2023-04-23T13:48:54.455Z,99631.69
2023-04-23T13:51:33.806Z,99629.28
2023-04-23T13:54:02.588Z,99627.31
2023-04-23T13:56:30.922Z,99624.53
2023-04-23T13:59:18.846Z,99612.97
2023-04-23T14:01:50.149Z,99621.34
2023-04-23T14:04:18.791Z,99618.75
2023-04-23T14:06:46.206Z,99611.91
2023-04-23T14:09:13.381Z,99619.25
2023-04-23T14:11:41.668Z,99618.94
2023-04-23T14:14:08.861Z,99602.59
2023-04-23T14:16:36.051Z,99606.19
2023-04-23T14:19:03.137Z,99600.56
2023-04-23T14:21:30.577Z,99583.16
2023-04-23T14:24:09.077Z,99599.06
2023-04-23T14:29:53.588Z,99597.16
2023-04-23T14:32:20.768Z,99590.47
2023-04-23T14:34:47.858Z,99610.97
2023-04-23T14:37:17.209Z,99591.19
2023-04-23T14:39:44.681Z,99590.59
2023-04-23T14:42:11.851Z,99596.22
2023-04-23T14:44:38.796Z,99595.56
2023-04-23T14:47:08.189Z,99586.25
2023-04-23T14:49:35.233Z,99588.50
2023-04-23T14:52:03.346Z,99583.13
2023-04-23T14:54:30.339Z,99584.94
2023-04-23T14:56:57.388Z,99587.38
2023-04-23T14:59:24.514Z,99576.59
2023-04-23T15:01:51.693Z,99580.53
2023-04-23T15:04:19.563Z,99583.75
2023-04-23T15:06:46.704Z,99582.75
2023-04-23T15:09:13.753Z,99579.38
2023-04-23T15:11:42.189Z,99584.63
2023-04-23T15:14:31.660Z,99584.34
2023-04-23T15:16:59.014Z,99572.34
2023-04-23T15:19:26.107Z,99571.75
2023-04-23T15:21:53.156Z,99565.72
2023-04-23T15:24:20.172Z,99576.09
2023-04-23T15:26:47.706Z,99569.78
2023-04-23T15:29:14.746Z,99563.78
2023-04-23T15:31:42.061Z,99556.13
2023-04-23T15:34:09.725Z,99558.25
2023-04-23T15:36:37.866Z,99555.69
2023-04-23T15:39:07.202Z,99557.69
2023-04-23T15:41:39.410Z,99549.56
2023-04-23T15:44:10.983Z,99556.28
2023-04-23T15:46:38.103Z,99550.75
2023-04-23T15:49:05.669Z,99546.19
2023-04-23T15:51:33.016Z,99541.00
2023-04-23T15:54:02.229Z,99556.09
2023-04-23T15:56:29.422Z,99548.88
2023-04-23T15:58:56.936Z,99543.44
2023-04-23T16:01:26.895Z,99539.97
2023-04-23T16:04:09.802Z,99540.16
2023-04-23T16:06:38.586Z,99539.31
2023-04-23T16:09:08.895Z,99529.19
2023-04-23T16:11:38.085Z,99524.75
2023-04-23T16:14:06.628Z,99526.28
2023-04-23T16:16:33.939Z,99532.31
2023-04-23T16:19:02.746Z,99534.22
2023-04-23T16:21:30.017Z,99530.94
2023-04-23T16:23:56.998Z,99540.28
2023-04-23T16:26:24.501Z,99528.06
2023-04-23T16:29:05.773Z,99527.50
2023-04-23T16:31:38.837Z,99525.22
2023-04-23T16:34:05.877Z,99518.81
2023-04-23T16:36:32.968Z,99520.69
2023-04-23T16:39:00.029Z,99523.47
2023-04-23T16:41:27.438Z,99526.03
2023-04-23T16:43:54.422Z,99522.97
2023-04-23T16:46:21.744Z,99518.69
2023-04-23T16:48:48.746Z,99527.28
2023-04-23T16:51:15.816Z,99515.63
2023-04-23T16:53:43.128Z,99521.25
2023-04-23T16:56:10.356Z,99518.56
2023-04-23T16:58:37.391Z,99509.88
2023-04-23T17:01:04.412Z,99512.41
2023-04-23T17:03:31.836Z,99511.66
2023-04-23T17:06:31.949Z,99508.88
2023-04-23T17:09:01.719Z,99512.75
2023-04-23T17:11:31.194Z,99506.53
2023-04-23T17:13:58.560Z,99516.44
2023-04-23T17:16:29.099Z,99507.59
2023-04-23T17:18:56.865Z,99512.25
2023-04-23T17:21:24.155Z,99506.31
2023-04-23T17:23:51.434Z,99498.31
2023-04-23T17:26:19.282Z,99503.56
2023-04-23T17:28:46.309Z,99496.59
2023-04-23T17:31:13.332Z,99507.31
2023-04-23T17:33:43.498Z,99500.06
2023-04-23T17:36:10.782Z,99504.03
2023-04-23T17:38:37.786Z,99497.97
2023-04-23T17:41:04.899Z,99498.00
2023-04-23T17:43:34.815Z,99497.41
2023-04-23T17:46:02.458Z,99498.28
2023-04-23T17:48:29.853Z,99486.78
2023-04-23T17:50:57.060Z,99489.94
2023-04-23T17:53:24.118Z,99488.31
2023-04-23T17:55:51.427Z,99484.16
2023-04-23T17:58:19.370Z,99499.56
2023-04-23T18:00:47.110Z,99490.03
2023-04-23T18:03:16.940Z,99491.75
2023-04-23T18:05:45.030Z,99500.75
2023-04-23T18:08:12.901Z,99493.91
2023-04-23T18:10:40.048Z,99501.72
2023-04-23T18:13:09.214Z,99495.59
2023-04-23T18:15:36.319Z,99501.03
2023-04-23T18:18:04.079Z,99502.84
2023-04-23T18:20:34.483Z,99498.44
2023-04-23T18:23:01.724Z,99499.44
2023-04-23T18:25:28.985Z,99512.13
2023-04-23T18:27:56.149Z,99503.88
2023-04-23T18:30:25.271Z,99510.31
2023-04-23T18:33:07.286Z,99508.63
2023-04-23T18:35:34.343Z,99506.06
2023-04-23T18:38:10.009Z,99504.22
2023-04-23T18:40:37.089Z,99502.69
2023-04-23T18:43:04.088Z,99507.28
2023-04-23T18:45:31.074Z,99499.94
2023-04-23T18:48:23.479Z,99501.00
2023-04-23T18:50:50.798Z,99499.38
2023-04-23T18:53:19.058Z,99505.56
2023-04-23T18:55:47.115Z,99505.78
2023-04-23T18:58:14.104Z,99500.34
2023-04-23T19:00:41.257Z,99497.50
2023-04-23T19:03:23.695Z,99502.97
2023-04-23T19:05:53.791Z,99500.56
2023-04-23T19:08:21.348Z,99497.00
2023-04-23T19:10:48.476Z,99497.13
2023-04-23T19:13:15.541Z,99491.59
2023-04-23T19:15:42.547Z,99489.25
2023-04-23T19:18:09.616Z,99493.75
2023-04-23T19:20:36.653Z,99494.66
2023-04-23T19:23:05.126Z,99498.00
2023-04-23T19:25:32.251Z,99496.31
2023-04-23T19:27:59.218Z,99492.13
2023-04-23T19:30:26.236Z,99497.53
2023-04-23T19:32:53.468Z,99485.94
2023-04-23T19:35:21.044Z,99496.72
2023-04-23T19:37:48.115Z,99495.03
2023-04-23T19:40:15.269Z,99488.91
2023-04-23T19:42:42.282Z,99489.03
2023-04-23T19:45:09.810Z,99481.16
2023-04-23T19:47:39.139Z,99489.13
2023-04-23T19:50:07.537Z,99492.63
2023-04-23T19:52:34.685Z,99491.00
2023-04-23T19:55:01.962Z,99488.44
2023-04-23T19:57:29.369Z,99478.56
2023-04-23T19:59:56.354Z,99479.44
2023-04-23T20:02:24.206Z,99483.94
2023-04-23T20:04:51.332Z,99481.31
2023-04-23T20:07:18.671Z,99475.97
2023-04-23T20:09:45.877Z,99475.16
2023-04-23T20:12:14.165Z,99473.31
2023-04-23T20:14:42.316Z,99477.00
2023-04-23T20:17:10.241Z,99472.56
2023-04-23T20:19:38.375Z,99464.56
2023-04-23T20:22:05.395Z,99470.78
2023-04-23T20:24:32.566Z,99470.94
2023-04-23T20:26:59.694Z,99474.47
2023-04-23T20:29:27.564Z,99468.16
2023-04-23T20:31:54.593Z,99468.16
2023-04-23T20:34:21.711Z,99468.19
2023-04-23T20:36:49.004Z,99465.75
2023-04-23T20:39:18.794Z,99462.25
2023-04-23T20:41:46.693Z,99457.59
2023-04-23T20:44:13.764Z,99468.28
2023-04-23T20:46:41.214Z,99471.03
2023-04-23T20:49:08.885Z,99470.31
2023-04-23T20:51:35.927Z,99471.06
2023-04-23T20:54:03.388Z,99474.56
2023-04-23T20:56:31.480Z,99474.63
2023-04-23T20:58:59.571Z,99490.75
2023-04-23T21:01:27.159Z,99503.16
2023-04-23T21:03:54.729Z,99500.41
2023-04-23T21:06:22.435Z,99501.41
2023-04-23T21:08:49.726Z,99478.31
2023-04-23T21:11:19.383Z,99470.63
2023-04-23T21:13:47.033Z,99473.41
2023-04-23T21:16:14.641Z,99481.34
2023-04-23T21:18:42.084Z,99486.66
2023-04-23T21:21:09.133Z,99493.88
2023-04-23T21:23:36.414Z,99489.41
2023-04-23T21:26:03.669Z,99493.94
2023-04-23T21:28:31.804Z,99478.03
2023-04-23T21:31:07.745Z,99480.72
2023-04-23T21:33:34.756Z,99486.97
2023-04-23T21:36:01.758Z,99476.28
2023-04-23T21:38:28.718Z,99469.13
2023-04-23T21:40:55.791Z,99471.94
2023-04-23T21:43:24.420Z,99473.72
2023-04-23T21:45:51.768Z,99470.06
2023-04-23T21:48:18.790Z,99466.63
2023-04-23T21:50:46.055Z,99461.34
2023-04-23T21:53:13.194Z,99467.59
2023-04-23T21:55:40.472Z,99465.81
2023-04-23T21:58:17.441Z,99467.59
2023-04-23T22:00:46.058Z,99460.50
2023-04-23T22:03:17.632Z,99462.31
2023-04-23T22:05:52.283Z,99449.88
2023-04-23T22:08:19.536Z,99459.72
2023-04-23T22:10:46.697Z,99465.09
2023-04-23T22:13:14.383Z,99471.28
2023-04-23T22:15:41.414Z,99463.31
2023-04-23T22:18:08.703Z,99446.50
2023-04-23T22:20:37.613Z,99445.66
2023-04-23T22:23:04.623Z,99464.31
2023-04-23T22:25:31.634Z,99450.16
2023-04-23T22:27:58.958Z,99449.25
2023-04-23T22:30:26.058Z,99455.41
2023-04-23T22:32:53.147Z,99453.69
2023-04-23T22:35:20.287Z,99445.75
2023-04-23T22:37:47.322Z,99448.44
2023-04-23T22:40:14.421Z,99448.44
2023-04-23T22:42:41.517Z,99442.31
2023-04-23T22:45:08.809Z,99440.50
2023-04-23T22:47:36.314Z,99435.19
2023-04-23T22:50:04.243Z,99447.59
2023-04-23T22:52:31.621Z,99445.84
2023-04-23T22:54:58.608Z,99444.97
2023-04-23T22:57:25.997Z,99435.19
2023-04-23T22:59:53.057Z,99441.44
2023-04-23T23:02:20.147Z,99445.88
2023-04-23T23:04:47.214Z,99449.41
2023-04-23T23:07:14.912Z,99444.13
2023-04-23T23:09:41.979Z,99439.69
2023-04-23T23:12:09.229Z,99440.59
2023-04-23T23:14:37.868Z,99441.47
2023-04-23T23:17:06.474Z,99436.16
2023-04-23T23:19:33.579Z,99436.16
2023-04-23T23:22:00.711Z,99430.84
2023-04-23T23:24:27.780Z,99428.19
2023-04-23T23:26:54.809Z,99424.66
2023-04-23T23:29:21.946Z,99431.75
2023-04-23T23:31:49.706Z,99437.06
2023-04-23T23:34:16.871Z,99430.84
2023-04-23T23:36:45.344Z,99426.41
2023-04-23T23:39:13.364Z,99425.53
2023-04-23T23:41:40.403Z,99428.19
2023-04-23T23:44:07.393Z,99422.91
2023-04-23T23:46:34.406Z,99416.66
2023-04-23T23:49:01.511Z,99421.09
2023-04-23T23:51:29.124Z,99417.56
2023-04-23T23:53:56.171Z,99411.34
2023-04-23T23:56:23.191Z,99410.47
2023-04-23T23:58:50.203Z,99419.34
